sensor_id;sensor_type;location;lat;lon;timestamp;P1;durP1;ratioP1;P2;durP2;ratioP2
5006;SDS011;2522;50.972;11.046;2022-09-29T03:32:30;6.63;;;3.23;;
5006;SDS011;2522;50.972;11.046;2022-09-29T03:34:57;5.67;;;2.70;;
5006;SDS011;2522;50.972;11.046;2022-09-29T03:37:24;5.93;;;3.63;;
5006;SDS011;2522;50.972;11.046;2022-09-29T03:39:51;6.93;;;3.20;;
5006;SDS011;2522;50.972;11.046;2022-09-29T03:42:18;6.13;;;3.50;;
5006;SDS011;2522;50.972;11.046;2022-09-29T03:44:48;7.43;;;4.17;;
5006;SDS011;2522;50.972;11.046;2022-09-29T03:47:15;7.13;;;3.50;;
5006;SDS011;2522;50.972;11.046;2022-09-29T03:49:43;6.27;;;3.27;;
5006;SDS011;2522;50.972;11.046;2022-09-29T03:52:10;5.60;;;3.37;;
5006;SDS011;2522;50.972;11.046;2022-09-29T03:54:37;6.10;;;3.80;;
5006;SDS011;2522;50.972;11.046;2022-09-29T03:57:04;6.60;;;3.57;;
5006;SDS011;2522;50.972;11.046;2022-09-29T03:59:32;7.33;;;4.00;;
5006;SDS011;2522;50.972;11.046;2022-09-29T04:01:59;10.10;;;3.90;;
5006;SDS011;2522;50.972;11.046;2022-09-29T04:04:26;8.70;;;3.90;;
5006;SDS011;2522;50.972;11.046;2022-09-29T04:06:55;12.30;;;3.80;;
5006;SDS011;2522;50.972;11.046;2022-09-29T04:09:22;6.13;;;3.33;;
5006;SDS011;2522;50.972;11.046;2022-09-29T04:11:48;7.10;;;4.20;;
5006;SDS011;2522;50.972;11.046;2022-09-29T04:14:15;4.90;;;3.00;;
5006;SDS011;2522;50.972;11.046;2022-09-29T04:16:42;5.20;;;2.93;;
5006;SDS011;2522;50.972;11.046;2022-09-29T04:19:09;6.70;;;3.40;;
5006;SDS011;2522;50.972;11.046;2022-09-29T04:21:36;5.53;;;3.27;;
5006;SDS011;2522;50.972;11.046;2022-09-29T04:24:04;6.30;;;3.23;;
5006;SDS011;2522;50.972;11.046;2022-09-29T04:26:31;6.10;;;3.50;;
5006;SDS011;2522;50.972;11.046;2022-09-29T04:28:58;6.47;;;3.70;;
5006;SDS011;2522;50.972;11.046;2022-09-29T04:31:25;5.30;;;3.30;;
5006;SDS011;2522;50.972;11.046;2022-09-29T04:33:52;6.50;;;3.10;;
5006;SDS011;2522;50.972;11.046;2022-09-29T04:36:19;5.40;;;2.97;;
5006;SDS011;2522;50.972;11.046;2022-09-29T04:38:48;5.90;;;3.20;;
5006;SDS011;2522;50.972;11.046;2022-09-29T04:41:17;7.60;;;3.67;;
5006;SDS011;2522;50.972;11.046;2022-09-29T04:43:43;6.17;;;3.20;;
5006;SDS011;2522;50.972;11.046;2022-09-29T04:46:10;7.10;;;3.70;;
5006;SDS011;2522;50.972;11.046;2022-09-29T04:48:39;6.33;;;3.63;;
5006;SDS011;2522;50.972;11.046;2022-09-29T04:51:06;7.20;;;3.40;;
5006;SDS011;2522;50.972;11.046;2022-09-29T04:53:34;6.97;;;3.53;;
5006;SDS011;2522;50.972;11.046;2022-09-29T04:56:04;6.93;;;3.73;;
5006;SDS011;2522;50.972;11.046;2022-09-29T04:58:34;5.70;;;3.60;;
5006;SDS011;2522;50.972;11.046;2022-09-29T05:01:05;5.97;;;3.77;;
5006;SDS011;2522;50.972;11.046;2022-09-29T05:03:33;6.80;;;3.67;;
5006;SDS011;2522;50.972;11.046;2022-09-29T05:06:00;7.80;;;4.50;;
5006;SDS011;2522;50.972;11.046;2022-09-29T05:08:27;11.97;;;4.13;;
5006;SDS011;2522;50.972;11.046;2022-09-29T05:10:53;7.67;;;4.63;;
5006;SDS011;2522;50.972;11.046;2022-09-29T05:13:20;9.17;;;4.50;;
5006;SDS011;2522;50.972;11.046;2022-09-29T05:15:52;10.60;;;4.30;;
5006;SDS011;2522;50.972;11.046;2022-09-29T05:18:20;7.80;;;4.20;;
5006;SDS011;2522;50.972;11.046;2022-09-29T05:20:47;8.97;;;4.60;;
5006;SDS011;2522;50.972;11.046;2022-09-29T05:23:14;8.37;;;4.97;;
5006;SDS011;2522;50.972;11.046;2022-09-29T05:25:41;9.27;;;4.90;;
5006;SDS011;2522;50.972;11.046;2022-09-29T05:28:09;8.50;;;4.47;;
5006;SDS011;2522;50.972;11.046;2022-09-29T05:30:36;8.43;;;4.83;;
5006;SDS011;2522;50.972;11.046;2022-09-29T05:33:04;7.40;;;4.10;;
5006;SDS011;2522;50.972;11.046;2022-09-29T05:35:31;9.53;;;5.10;;
5006;SDS011;2522;50.972;11.046;2022-09-29T05:37:58;9.77;;;5.03;;
5006;SDS011;2522;50.972;11.046;2022-09-29T05:40:25;11.50;;;5.10;;
5006;SDS011;2522;50.972;11.046;2022-09-29T05:42:52;8.20;;;4.27;;
5006;SDS011;2522;50.972;11.046;2022-09-29T05:45:19;8.07;;;4.67;;
5006;SDS011;2522;50.972;11.046;2022-09-29T05:47:46;10.40;;;5.07;;
5006;SDS011;2522;50.972;11.046;2022-09-29T05:50:14;11.17;;;4.80;;
5006;SDS011;2522;50.972;11.046;2022-09-29T05:52:41;7.47;;;4.70;;
5006;SDS011;2522;50.972;11.046;2022-09-29T05:55:12;6.93;;;4.10;;
5006;SDS011;2522;50.972;11.046;2022-09-29T05:57:40;7.33;;;4.23;;
5006;SDS011;2522;50.972;11.046;2022-09-29T06:00:07;10.33;;;4.00;;
5006;SDS011;2522;50.972;11.046;2022-09-29T06:02:34;7.77;;;4.33;;
5006;SDS011;2522;50.972;11.046;2022-09-29T06:05:01;9.83;;;4.80;;
5006;SDS011;2522;50.972;11.046;2022-09-29T06:07:30;10.80;;;4.73;;
5006;SDS011;2522;50.972;11.046;2022-09-29T06:09:57;10.60;;;5.60;;
5006;SDS011;2522;50.972;11.046;2022-09-29T06:12:24;9.00;;;4.97;;
5006;SDS011;2522;50.972;11.046;2022-09-29T06:14:51;9.50;;;5.10;;
5006;SDS011;2522;50.972;11.046;2022-09-29T06:17:17;8.43;;;4.63;;
5006;SDS011;2522;50.972;11.046;2022-09-29T06:19:44;15.47;;;5.90;;
5006;SDS011;2522;50.972;11.046;2022-09-29T06:22:11;10.40;;;5.07;;
5006;SDS011;2522;50.972;11.046;2022-09-29T06:24:39;10.80;;;6.37;;
5006;SDS011;2522;50.972;11.046;2022-09-29T06:27:06;8.90;;;4.80;;
5006;SDS011;2522;50.972;11.046;2022-09-29T06:29:35;7.77;;;4.73;;
5006;SDS011;2522;50.972;11.046;2022-09-29T06:32:02;16.63;;;6.20;;
5006;SDS011;2522;50.972;11.046;2022-09-29T06:34:29;12.70;;;6.30;;
5006;SDS011;2522;50.972;11.046;2022-09-29T06:36:56;10.17;;;6.10;;
5006;SDS011;2522;50.972;11.046;2022-09-29T06:39:42;12.20;;;7.80;;
5006;SDS011;2522;50.972;11.046;2022-09-29T06:42:09;18.23;;;7.80;;
5006;SDS011;2522;50.972;11.046;2022-09-29T06:44:36;18.40;;;7.67;;
5006;SDS011;2522;50.972;11.046;2022-09-29T06:47:03;11.10;;;7.40;;
5006;SDS011;2522;50.972;11.046;2022-09-29T06:49:30;13.80;;;7.67;;
5006;SDS011;2522;50.972;11.046;2022-09-29T06:51:57;13.10;;;7.40;;
5006;SDS011;2522;50.972;11.046;2022-09-29T06:54:24;12.90;;;7.30;;
5006;SDS011;2522;50.972;11.046;2022-09-29T06:56:52;12.37;;;6.70;;
5006;SDS011;2522;50.972;11.046;2022-09-29T06:59:20;14.83;;;8.13;;
5006;SDS011;2522;50.972;11.046;2022-09-29T07:01:47;14.33;;;6.73;;
5006;SDS011;2522;50.972;11.046;2022-09-29T07:04:14;12.53;;;7.10;;
5006;SDS011;2522;50.972;11.046;2022-09-29T07:06:41;12.17;;;5.90;;
5006;SDS011;2522;50.972;11.046;2022-09-29T07:09:09;11.97;;;7.10;;
5006;SDS011;2522;50.972;11.046;2022-09-29T07:11:40;13.07;;;6.97;;
5006;SDS011;2522;50.972;11.046;2022-09-29T07:14:12;11.73;;;7.43;;
5006;SDS011;2522;50.972;11.046;2022-09-29T07:16:38;12.83;;;6.40;;
5006;SDS011;2522;50.972;11.046;2022-09-29T07:19:06;16.67;;;7.37;;
5006;SDS011;2522;50.972;11.046;2022-09-29T07:21:33;15.80;;;7.90;;
5006;SDS011;2522;50.972;11.046;2022-09-29T07:24:01;10.43;;;5.80;;
5006;SDS011;2522;50.972;11.046;2022-09-29T07:26:28;12.07;;;7.27;;
5006;SDS011;2522;50.972;11.046;2022-09-29T07:28:55;12.00;;;6.00;;
5006;SDS011;2522;50.972;11.046;2022-09-29T07:31:23;13.40;;;6.97;;
5006;SDS011;2522;50.972;11.046;2022-09-29T07:33:50;14.30;;;7.70;;
5006;SDS011;2522;50.972;11.046;2022-09-29T07:36:18;13.17;;;7.50;;
5006;SDS011;2522;50.972;11.046;2022-09-29T07:38:46;12.37;;;6.20;;
5006;SDS011;2522;50.972;11.046;2022-09-29T07:41:14;14.23;;;5.77;;
5006;SDS011;2522;50.972;11.046;2022-09-29T07:43:42;13.80;;;5.90;;
5006;SDS011;2522;50.972;11.046;2022-09-29T07:46:09;10.30;;;5.20;;
5006;SDS011;2522;50.972;11.046;2022-09-29T07:48:37;9.70;;;5.23;;
5006;SDS011;2522;50.972;11.046;2022-09-29T07:51:05;14.30;;;6.00;;
5006;SDS011;2522;50.972;11.046;2022-09-29T07:53:33;11.80;;;5.73;;
5006;SDS011;2522;50.972;11.046;2022-09-29T07:56:01;11.40;;;6.30;;
5006;SDS011;2522;50.972;11.046;2022-09-29T07:58:29;13.50;;;6.37;;
5006;SDS011;2522;50.972;11.046;2022-09-29T08:00:57;11.60;;;6.07;;
5006;SDS011;2522;50.972;11.046;2022-09-29T08:03:24;14.50;;;6.03;;
5006;SDS011;2522;50.972;11.046;2022-09-29T08:05:53;15.87;;;6.40;;
5006;SDS011;2522;50.972;11.046;2022-09-29T08:08:19;11.77;;;6.43;;
5006;SDS011;2522;50.972;11.046;2022-09-29T08:10:46;11.33;;;5.77;;
5006;SDS011;2522;50.972;11.046;2022-09-29T08:13:13;10.57;;;5.97;;
5006;SDS011;2522;50.972;11.046;2022-09-29T08:15:41;11.50;;;6.03;;
5006;SDS011;2522;50.972;11.046;2022-09-29T08:18:08;18.97;;;6.53;;
5006;SDS011;2522;50.972;11.046;2022-09-29T08:20:35;8.70;;;4.77;;
5006;SDS011;2522;50.972;11.046;2022-09-29T08:23:03;8.77;;;4.50;;
5006;SDS011;2522;50.972;11.046;2022-09-29T08:25:31;15.87;;;4.27;;
5006;SDS011;2522;50.972;11.046;2022-09-29T08:27:59;6.50;;;3.80;;
5006;SDS011;2522;50.972;11.046;2022-09-29T08:30:26;9.10;;;3.50;;
5006;SDS011;2522;50.972;11.046;2022-09-29T08:32:53;8.07;;;3.03;;
5006;SDS011;2522;50.972;11.046;2022-09-29T08:35:20;4.50;;;3.23;;
5006;SDS011;2522;50.972;11.046;2022-09-29T08:37:47;6.60;;;3.67;;
5006;SDS011;2522;50.972;11.046;2022-09-29T08:40:16;7.00;;;3.10;;
5006;SDS011;2522;50.972;11.046;2022-09-29T08:42:46;6.30;;;3.07;;
5006;SDS011;2522;50.972;11.046;2022-09-29T08:45:22;4.97;;;2.90;;
5006;SDS011;2522;50.972;11.046;2022-09-29T08:47:53;5.20;;;2.70;;
5006;SDS011;2522;50.972;11.046;2022-09-29T08:50:26;8.67;;;3.63;;
5006;SDS011;2522;50.972;11.046;2022-09-29T08:52:57;6.37;;;4.00;;
5006;SDS011;2522;50.972;11.046;2022-09-29T08:55:32;8.97;;;3.50;;
5006;SDS011;2522;50.972;11.046;2022-09-29T08:58:06;7.90;;;3.77;;
5006;SDS011;2522;50.972;11.046;2022-09-29T09:00:38;7.57;;;3.47;;
5006;SDS011;2522;50.972;11.046;2022-09-29T09:03:11;6.93;;;3.77;;
5006;SDS011;2522;50.972;11.046;2022-09-29T09:06:13;5.33;;;3.50;;
5006;SDS011;2522;50.972;11.046;2022-09-29T09:08:55;5.97;;;4.00;;
5006;SDS011;2522;50.972;11.046;2022-09-29T09:11:39;6.70;;;3.70;;
5006;SDS011;2522;50.972;11.046;2022-09-29T09:14:21;6.13;;;3.53;;
5006;SDS011;2522;50.972;11.046;2022-09-29T09:16:59;6.00;;;3.60;;
5006;SDS011;2522;50.972;11.046;2022-09-29T09:19:42;10.47;;;3.60;;
5006;SDS011;2522;50.972;11.046;2022-09-29T09:22:21;5.40;;;3.60;;
5006;SDS011;2522;50.972;11.046;2022-09-29T09:24:54;5.87;;;3.60;;
5006;SDS011;2522;50.972;11.046;2022-09-29T09:27:25;6.70;;;4.00;;
5006;SDS011;2522;50.972;11.046;2022-09-29T09:30:00;5.93;;;3.07;;
5006;SDS011;2522;50.972;11.046;2022-09-29T09:32:30;6.50;;;3.30;;
5006;SDS011;2522;50.972;11.046;2022-09-29T09:35:05;4.80;;;3.17;;
5006;SDS011;2522;50.972;11.046;2022-09-29T09:37:45;6.33;;;3.40;;
5006;SDS011;2522;50.972;11.046;2022-09-29T09:40:14;5.63;;;3.50;;
5006;SDS011;2522;50.972;11.046;2022-09-29T09:42:48;5.33;;;2.80;;
5006;SDS011;2522;50.972;11.046;2022-09-29T09:45:22;10.10;;;2.83;;
5006;SDS011;2522;50.972;11.046;2022-09-29T09:47:55;3.43;;;2.33;;
5006;SDS011;2522;50.972;11.046;2022-09-29T09:50:30;5.00;;;2.93;;
5006;SDS011;2522;50.972;11.046;2022-09-29T09:52:58;6.80;;;2.63;;
5006;SDS011;2522;50.972;11.046;2022-09-29T09:55:28;5.83;;;2.90;;
5006;SDS011;2522;50.972;11.046;2022-09-29T09:58:02;5.10;;;3.30;;
5006;SDS011;2522;50.972;11.046;2022-09-29T10:00:37;5.93;;;3.43;;
5006;SDS011;2522;50.972;11.046;2022-09-29T10:03:08;4.90;;;2.57;;
5006;SDS011;2522;50.972;11.046;2022-09-29T10:05:36;5.47;;;3.20;;
5006;SDS011;2522;50.972;11.046;2022-09-29T10:08:06;4.03;;;2.60;;
5006;SDS011;2522;50.972;11.046;2022-09-29T10:10:38;8.40;;;2.83;;
5006;SDS011;2522;50.972;11.046;2022-09-29T10:13:08;4.57;;;2.73;;
5006;SDS011;2522;50.972;11.046;2022-09-29T10:15:39;6.23;;;2.27;;
5006;SDS011;2522;50.972;11.046;2022-09-29T10:18:13;6.83;;;2.37;;
5006;SDS011;2522;50.972;11.046;2022-09-29T10:20:43;4.83;;;2.30;;
5006;SDS011;2522;50.972;11.046;2022-09-29T10:26:07;9.13;;;2.53;;
5006;SDS011;2522;50.972;11.046;2022-09-29T10:28:40;5.67;;;2.90;;
5006;SDS011;2522;50.972;11.046;2022-09-29T10:31:17;4.83;;;2.30;;
5006;SDS011;2522;50.972;11.046;2022-09-29T10:33:51;4.60;;;2.60;;
5006;SDS011;2522;50.972;11.046;2022-09-29T10:36:21;5.13;;;3.00;;
5006;SDS011;2522;50.972;11.046;2022-09-29T10:38:49;5.00;;;2.50;;
5006;SDS011;2522;50.972;11.046;2022-09-29T10:41:17;4.90;;;2.60;;
5006;SDS011;2522;50.972;11.046;2022-09-29T10:43:46;6.33;;;2.90;;
5006;SDS011;2522;50.972;11.046;2022-09-29T10:46:36;5.13;;;2.77;;
5006;SDS011;2522;50.972;11.046;2022-09-29T10:49:12;6.63;;;2.43;;
5006;SDS011;2522;50.972;11.046;2022-09-29T10:51:41;3.67;;;2.30;;
5006;SDS011;2522;50.972;11.046;2022-09-29T10:54:20;6.53;;;2.83;;
5006;SDS011;2522;50.972;11.046;2022-09-29T10:56:49;3.10;;;2.33;;
5006;SDS011;2522;50.972;11.046;2022-09-29T10:59:18;3.67;;;1.83;;
5006;SDS011;2522;50.972;11.046;2022-09-29T11:01:46;4.77;;;2.30;;
5006;SDS011;2522;50.972;11.046;2022-09-29T11:04:16;4.10;;;1.90;;
5006;SDS011;2522;50.972;11.046;2022-09-29T11:06:47;4.10;;;2.20;;
5006;SDS011;2522;50.972;11.046;2022-09-29T11:09:28;2.90;;;1.73;;
5006;SDS011;2522;50.972;11.046;2022-09-29T11:11:56;3.20;;;2.30;;
5006;SDS011;2522;50.972;11.046;2022-09-29T11:14:26;2.80;;;2.13;;
5006;SDS011;2522;50.972;11.046;2022-09-29T11:16:55;4.40;;;2.27;;
5006;SDS011;2522;50.972;11.046;2022-09-29T11:19:23;4.97;;;2.40;;
5006;SDS011;2522;50.972;11.046;2022-09-29T11:22:03;4.20;;;2.47;;
5006;SDS011;2522;50.972;11.046;2022-09-29T11:24:44;4.47;;;2.90;;
5006;SDS011;2522;50.972;11.046;2022-09-29T11:27:29;4.87;;;2.77;;
5006;SDS011;2522;50.972;11.046;2022-09-29T11:30:08;4.17;;;2.23;;
5006;SDS011;2522;50.972;11.046;2022-09-29T11:32:40;4.23;;;2.13;;
5006;SDS011;2522;50.972;11.046;2022-09-29T11:35:17;7.10;;;2.70;;
5006;SDS011;2522;50.972;11.046;2022-09-29T11:38:01;4.57;;;2.10;;
5006;SDS011;2522;50.972;11.046;2022-09-29T11:40:44;3.70;;;1.60;;
5006;SDS011;2522;50.972;11.046;2022-09-29T11:43:29;4.27;;;2.30;;
5006;SDS011;2522;50.972;11.046;2022-09-29T11:46:13;4.33;;;2.20;;
5006;SDS011;2522;50.972;11.046;2022-09-29T11:49:07;4.20;;;2.03;;
5006;SDS011;2522;50.972;11.046;2022-09-29T11:51:50;3.30;;;1.97;;
5006;SDS011;2522;50.972;11.046;2022-09-29T11:54:30;5.20;;;1.80;;
5006;SDS011;2522;50.972;11.046;2022-09-29T11:57:13;7.60;;;1.93;;
5006;SDS011;2522;50.972;11.046;2022-09-29T11:59:55;6.50;;;2.30;;
5006;SDS011;2522;50.972;11.046;2022-09-29T12:02:45;5.77;;;2.03;;
5006;SDS011;2522;50.972;11.046;2022-09-29T12:05:34;5.53;;;2.13;;
5006;SDS011;2522;50.972;11.046;2022-09-29T12:08:15;5.73;;;2.00;;
5006;SDS011;2522;50.972;11.046;2022-09-29T12:10:52;9.80;;;2.17;;
5006;SDS011;2522;50.972;11.046;2022-09-29T12:13:29;3.90;;;1.80;;
5006;SDS011;2522;50.972;11.046;2022-09-29T12:16:06;3.40;;;2.23;;
5006;SDS011;2522;50.972;11.046;2022-09-29T12:18:38;7.33;;;2.00;;
5006;SDS011;2522;50.972;11.046;2022-09-29T12:21:10;2.93;;;1.40;;
5006;SDS011;2522;50.972;11.046;2022-09-29T12:23:41;3.20;;;1.60;;
5006;SDS011;2522;50.972;11.046;2022-09-29T12:26:12;10.03;;;2.07;;
5006;SDS011;2522;50.972;11.046;2022-09-29T12:28:44;3.60;;;1.97;;
5006;SDS011;2522;50.972;11.046;2022-09-29T12:31:18;3.93;;;1.60;;
5006;SDS011;2522;50.972;11.046;2022-09-29T12:33:50;3.60;;;2.40;;
5006;SDS011;2522;50.972;11.046;2022-09-29T12:36:31;4.90;;;2.03;;
5006;SDS011;2522;50.972;11.046;2022-09-29T12:39:33;3.90;;;1.90;;
5006;SDS011;2522;50.972;11.046;2022-09-29T12:42:16;3.23;;;2.13;;
5006;SDS011;2522;50.972;11.046;2022-09-29T12:44:52;4.10;;;1.93;;
5006;SDS011;2522;50.972;11.046;2022-09-29T12:47:25;4.90;;;2.23;;
5006;SDS011;2522;50.972;11.046;2022-09-29T12:50:04;4.90;;;1.97;;
5006;SDS011;2522;50.972;11.046;2022-09-29T12:52:39;2.70;;;1.67;;
5006;SDS011;2522;50.972;11.046;2022-09-29T12:55:14;5.17;;;2.20;;
5006;SDS011;2522;50.972;11.046;2022-09-29T12:57:46;4.60;;;1.80;;
5006;SDS011;2522;50.972;11.046;2022-09-29T13:00:16;6.87;;;2.30;;
5006;SDS011;2522;50.972;11.046;2022-09-29T13:05:55;2.00;;;1.60;;
5006;SDS011;2522;50.972;11.046;2022-09-29T13:08:53;2.30;;;1.70;;
5006;SDS011;2522;50.972;11.046;2022-09-29T13:11:43;4.33;;;2.40;;
5006;SDS011;2522;50.972;11.046;2022-09-29T13:17:17;4.80;;;1.60;;
5006;SDS011;2522;50.972;11.046;2022-09-29T13:20:00;3.37;;;2.00;;
5006;SDS011;2522;50.972;11.046;2022-09-29T13:23:18;3.80;;;2.10;;
5006;SDS011;2522;50.972;11.046;2022-09-29T13:25:59;4.80;;;2.40;;
5006;SDS011;2522;50.972;11.046;2022-09-29T13:28:37;2.60;;;1.90;;
5006;SDS011;2522;50.972;11.046;2022-09-29T13:31:08;3.60;;;1.97;;
5006;SDS011;2522;50.972;11.046;2022-09-29T13:33:39;3.20;;;1.77;;
5006;SDS011;2522;50.972;11.046;2022-09-29T13:36:14;2.80;;;1.80;;
5006;SDS011;2522;50.972;11.046;2022-09-29T13:38:49;5.77;;;2.17;;
5006;SDS011;2522;50.972;11.046;2022-09-29T13:44:20;6.13;;;2.17;;
5006;SDS011;2522;50.972;11.046;2022-09-29T13:46:50;2.40;;;1.73;;
5006;SDS011;2522;50.972;11.046;2022-09-29T13:49:23;4.10;;;2.00;;
5006;SDS011;2522;50.972;11.046;2022-09-29T13:51:52;5.73;;;2.00;;
5006;SDS011;2522;50.972;11.046;2022-09-29T13:54:28;3.30;;;1.87;;
5006;SDS011;2522;50.972;11.046;2022-09-29T14:00:00;2.40;;;1.00;;
5006;SDS011;2522;50.972;11.046;2022-09-29T14:02:58;3.87;;;1.43;;
5006;SDS011;2522;50.972;11.046;2022-09-29T14:05:34;1.97;;;1.20;;
5006;SDS011;2522;50.972;11.046;2022-09-29T14:08:10;7.67;;;1.70;;
5006;SDS011;2522;50.972;11.046;2022-09-29T14:10:46;2.43;;;1.37;;
5006;SDS011;2522;50.972;11.046;2022-09-29T14:13:19;1.70;;;1.20;;
5006;SDS011;2522;50.972;11.046;2022-09-29T14:15:54;1.37;;;1.00;;
5006;SDS011;2522;50.972;11.046;2022-09-29T14:18:33;2.00;;;1.00;;
5006;SDS011;2522;50.972;11.046;2022-09-29T14:21:08;1.70;;;1.10;;
5006;SDS011;2522;50.972;11.046;2022-09-29T14:23:46;4.33;;;1.13;;
5006;SDS011;2522;50.972;11.046;2022-09-29T14:29:15;5.47;;;1.50;;
5006;SDS011;2522;50.972;11.046;2022-09-29T14:31:47;3.53;;;1.53;;
5006;SDS011;2522;50.972;11.046;2022-09-29T14:34:17;6.60;;;1.67;;
5006;SDS011;2522;50.972;11.046;2022-09-29T14:36:47;3.03;;;1.50;;
5006;SDS011;2522;50.972;11.046;2022-09-29T14:39:16;4.53;;;1.43;;
5006;SDS011;2522;50.972;11.046;2022-09-29T14:41:44;3.57;;;1.87;;
5006;SDS011;2522;50.972;11.046;2022-09-29T14:44:16;6.67;;;1.87;;
5006;SDS011;2522;50.972;11.046;2022-09-29T14:50:16;3.80;;;1.50;;
5006;SDS011;2522;50.972;11.046;2022-09-29T14:53:26;2.50;;;1.10;;
5006;SDS011;2522;50.972;11.046;2022-09-29T14:56:10;3.03;;;0.93;;
5006;SDS011;2522;50.972;11.046;2022-09-29T14:58:57;3.53;;;1.30;;
5006;SDS011;2522;50.972;11.046;2022-09-29T15:01:37;4.27;;;1.17;;
5006;SDS011;2522;50.972;11.046;2022-09-29T15:04:19;4.50;;;1.17;;
5006;SDS011;2522;50.972;11.046;2022-09-29T15:06:48;1.50;;;1.00;;
5006;SDS011;2522;50.972;11.046;2022-09-29T15:09:17;2.43;;;1.17;;
5006;SDS011;2522;50.972;11.046;2022-09-29T15:11:47;4.40;;;1.30;;
5006;SDS011;2522;50.972;11.046;2022-09-29T15:14:22;1.43;;;0.90;;
5006;SDS011;2522;50.972;11.046;2022-09-29T15:16:54;3.00;;;1.07;;
5006;SDS011;2522;50.972;11.046;2022-09-29T15:19:35;1.40;;;0.77;;
5006;SDS011;2522;50.972;11.046;2022-09-29T15:25:18;7.20;;;0.97;;
5006;SDS011;2522;50.972;11.046;2022-09-29T15:27:49;2.00;;;0.87;;
5006;SDS011;2522;50.972;11.046;2022-09-29T15:30:20;2.27;;;1.07;;
5006;SDS011;2522;50.972;11.046;2022-09-29T15:32:49;1.30;;;0.80;;
5006;SDS011;2522;50.972;11.046;2022-09-29T15:35:19;2.57;;;1.27;;
5006;SDS011;2522;50.972;11.046;2022-09-29T15:37:56;2.77;;;1.27;;
5006;SDS011;2522;50.972;11.046;2022-09-29T15:40:27;3.43;;;1.00;;
5006;SDS011;2522;50.972;11.046;2022-09-29T15:43:01;2.10;;;1.30;;
5006;SDS011;2522;50.972;11.046;2022-09-29T15:45:30;1.97;;;1.10;;
5006;SDS011;2522;50.972;11.046;2022-09-29T15:47:59;4.47;;;1.93;;
5006;SDS011;2522;50.972;11.046;2022-09-29T15:50:29;3.40;;;1.50;;
5006;SDS011;2522;50.972;11.046;2022-09-29T15:52:57;3.77;;;1.60;;
5006;SDS011;2522;50.972;11.046;2022-09-29T15:55:27;7.40;;;2.13;;
5006;SDS011;2522;50.972;11.046;2022-09-29T15:57:55;8.57;;;2.70;;
5006;SDS011;2522;50.972;11.046;2022-09-29T16:03:30;5.63;;;1.90;;
5006;SDS011;2522;50.972;11.046;2022-09-29T16:06:05;2.73;;;1.77;;
5006;SDS011;2522;50.972;11.046;2022-09-29T16:08:42;6.37;;;1.80;;
5006;SDS011;2522;50.972;11.046;2022-09-29T16:11:15;3.93;;;2.23;;
5006;SDS011;2522;50.972;11.046;2022-09-29T16:13:48;2.30;;;1.53;;
5006;SDS011;2522;50.972;11.046;2022-09-29T16:16:25;3.53;;;2.00;;
5006;SDS011;2522;50.972;11.046;2022-09-29T16:18:57;3.87;;;1.77;;
5006;SDS011;2522;50.972;11.046;2022-09-29T16:21:31;4.70;;;2.13;;
5006;SDS011;2522;50.972;11.046;2022-09-29T16:24:04;4.10;;;1.47;;
5006;SDS011;2522;50.972;11.046;2022-09-29T16:26:38;4.50;;;1.80;;
5006;SDS011;2522;50.972;11.046;2022-09-29T16:29:26;7.83;;;4.20;;
5006;SDS011;2522;50.972;11.046;2022-09-29T16:31:57;38.00;;;18.17;;
5006;SDS011;2522;50.972;11.046;2022-09-29T16:34:27;14.43;;;8.60;;
5006;SDS011;2522;50.972;11.046;2022-09-29T16:36:57;10.63;;;6.63;;
5006;SDS011;2522;50.972;11.046;2022-09-29T16:39:26;4.70;;;4.07;;
5006;SDS011;2522;50.972;11.046;2022-09-29T16:41:57;9.53;;;3.70;;
5006;SDS011;2522;50.972;11.046;2022-09-29T16:44:27;8.60;;;3.37;;
5006;SDS011;2522;50.972;11.046;2022-09-29T16:46:58;5.20;;;2.87;;
5006;SDS011;2522;50.972;11.046;2022-09-29T16:49:28;7.07;;;2.90;;
5006;SDS011;2522;50.972;11.046;2022-09-29T16:51:57;6.93;;;3.27;;
5006;SDS011;2522;50.972;11.046;2022-09-29T16:54:28;9.93;;;3.07;;
5006;SDS011;2522;50.972;11.046;2022-09-29T16:59:59;3.63;;;2.53;;
5006;SDS011;2522;50.972;11.046;2022-09-29T17:02:30;17.00;;;3.17;;
5006;SDS011;2522;50.972;11.046;2022-09-29T17:04:57;5.50;;;3.00;;
5006;SDS011;2522;50.972;11.046;2022-09-29T17:07:25;5.10;;;2.80;;
5006;SDS011;2522;50.972;11.046;2022-09-29T17:09:53;7.50;;;3.37;;
5006;SDS011;2522;50.972;11.046;2022-09-29T17:12:22;11.63;;;3.30;;
5006;SDS011;2522;50.972;11.046;2022-09-29T17:14:49;8.23;;;3.70;;
5006;SDS011;2522;50.972;11.046;2022-09-29T17:17:17;9.80;;;3.67;;
5006;SDS011;2522;50.972;11.046;2022-09-29T17:19:48;4.80;;;3.10;;
5006;SDS011;2522;50.972;11.046;2022-09-29T17:22:19;5.90;;;3.23;;
5006;SDS011;2522;50.972;11.046;2022-09-29T17:24:50;8.10;;;4.00;;
5006;SDS011;2522;50.972;11.046;2022-09-29T17:27:17;5.20;;;3.53;;
5006;SDS011;2522;50.972;11.046;2022-09-29T17:30:02;6.70;;;2.90;;
5006;SDS011;2522;50.972;11.046;2022-09-29T17:32:30;6.43;;;3.30;;
5006;SDS011;2522;50.972;11.046;2022-09-29T17:34:59;7.80;;;3.90;;
5006;SDS011;2522;50.972;11.046;2022-09-29T17:37:26;7.40;;;3.30;;
5006;SDS011;2522;50.972;11.046;2022-09-29T17:39:53;5.43;;;3.60;;
5006;SDS011;2522;50.972;11.046;2022-09-29T17:42:21;6.80;;;3.37;;
5006;SDS011;2522;50.972;11.046;2022-09-29T17:44:51;6.30;;;4.00;;
5006;SDS011;2522;50.972;11.046;2022-09-29T17:47:18;8.40;;;3.93;;
5006;SDS011;2522;50.972;11.046;2022-09-29T17:49:45;7.40;;;3.70;;
5006;SDS011;2522;50.972;11.046;2022-09-29T17:52:16;6.00;;;4.30;;
5006;SDS011;2522;50.972;11.046;2022-09-29T17:54:44;8.13;;;4.77;;
5006;SDS011;2522;50.972;11.046;2022-09-29T17:57:15;9.47;;;4.80;;
5006;SDS011;2522;50.972;11.046;2022-09-29T17:59:45;7.10;;;4.40;;
5006;SDS011;2522;50.972;11.046;2022-09-29T18:02:12;7.80;;;4.97;;
5006;SDS011;2522;50.972;11.046;2022-09-29T18:04:40;7.23;;;4.43;;
5006;SDS011;2522;50.972;11.046;2022-09-29T18:07:12;8.60;;;5.20;;
5006;SDS011;2522;50.972;11.046;2022-09-29T18:09:41;5.47;;;2.97;;
5006;SDS011;2522;50.972;11.046;2022-09-29T18:12:11;7.27;;;3.00;;
5006;SDS011;2522;50.972;11.046;2022-09-29T18:14:38;4.00;;;2.40;;
5006;SDS011;2522;50.972;11.046;2022-09-29T18:17:05;6.07;;;2.83;;
5006;SDS011;2522;50.972;11.046;2022-09-29T18:19:33;4.97;;;2.77;;
5006;SDS011;2522;50.972;11.046;2022-09-29T18:22:02;6.37;;;3.73;;
5006;SDS011;2522;50.972;11.046;2022-09-29T18:24:30;6.80;;;3.70;;
5006;SDS011;2522;50.972;11.046;2022-09-29T18:26:59;7.13;;;3.73;;
5006;SDS011;2522;50.972;11.046;2022-09-29T18:29:26;5.53;;;3.47;;
5006;SDS011;2522;50.972;11.046;2022-09-29T18:31:53;6.10;;;3.33;;
5006;SDS011;2522;50.972;11.046;2022-09-29T18:34:20;7.07;;;4.17;;
5006;SDS011;2522;50.972;11.046;2022-09-29T18:36:47;12.03;;;3.50;;
5006;SDS011;2522;50.972;11.046;2022-09-29T18:39:14;6.27;;;3.63;;
5006;SDS011;2522;50.972;11.046;2022-09-29T18:41:41;4.30;;;3.00;;
5006;SDS011;2522;50.972;11.046;2022-09-29T18:44:11;8.60;;;4.30;;
5006;SDS011;2522;50.972;11.046;2022-09-29T18:46:39;9.93;;;3.40;;
5006;SDS011;2522;50.972;11.046;2022-09-29T18:49:08;3.70;;;2.93;;
5006;SDS011;2522;50.972;11.046;2022-09-29T18:51:37;9.83;;;3.60;;
5006;SDS011;2522;50.972;11.046;2022-09-29T18:54:04;6.30;;;3.23;;
5006;SDS011;2522;50.972;11.046;2022-09-29T18:56:31;9.03;;;3.93;;
5006;SDS011;2522;50.972;11.046;2022-09-29T18:58:59;3.20;;;2.57;;
5006;SDS011;2522;50.972;11.046;2022-09-29T19:01:31;5.00;;;3.00;;
5006;SDS011;2522;50.972;11.046;2022-09-29T19:03:58;8.00;;;3.50;;
5006;SDS011;2522;50.972;11.046;2022-09-29T19:06:25;8.53;;;3.20;;
5006;SDS011;2522;50.972;11.046;2022-09-29T19:08:53;8.43;;;3.50;;
5006;SDS011;2522;50.972;11.046;2022-09-29T19:11:22;6.70;;;3.70;;
5006;SDS011;2522;50.972;11.046;2022-09-29T19:13:50;5.80;;;3.47;;
5006;SDS011;2522;50.972;11.046;2022-09-29T19:16:20;6.50;;;4.00;;
5006;SDS011;2522;50.972;11.046;2022-09-29T19:18:49;8.47;;;4.20;;
5006;SDS011;2522;50.972;11.046;2022-09-29T19:21:17;6.60;;;3.90;;
5006;SDS011;2522;50.972;11.046;2022-09-29T19:23:49;7.43;;;3.30;;
5006;SDS011;2522;50.972;11.046;2022-09-29T19:26:17;6.87;;;3.60;;